Terminal Aerodrome Forecast
Issued by NWS Jacksonville, FL

Home | Current Version | Previous Version | Text Only | Print | Product List | Glossary On
Versions: 1 2 3 4 5 6 7 8 9 10 11 12 13 14 15 16 17 18 19 20 21 22 23 24 25 26 27 28 29 30 31 32 33 34 35 36 37 38 39
000
FTUS42 KJAX 280111 AAA
TAFJAX
TAF AMD
KJAX 280111Z 2801/2824 07005KT P6SM SHRA BKN050 BKN250
      TEMPO 2801/2803 5SM SHRA BR SCT015 BKN035
     FM280400 03002KT P6SM BKN250
     FM281400 07010KT P6SM VCSH SCT015 BKN035
     FM281800 08012G20KT P6SM VCTS BKN040CB=

USA.gov is the U.S. government's official web portal to all federal, state and local government web resources and services.